Time;durP1;ratioP1;P1;durP2;ratioP2;P2;SDS_P1;SDS_P2;PMS_P1;PMS_P2;Temp;Humidity;BMP_temperature;BMP_pressure;BME280_temperature;BME280_humidity;BME280_pressure;Samples;Min_cycle;Max_cycle;Signal;HPM_P1;HPM_P2
2021/07/03 00:01:04;;;;;;;;;10.00;10.00;;;;;;;;5086572;28;9827;-93
2021/07/03 00:03:31;;;;;;;;;16.60;13.60;;;;;;;;5084732;28;8900;-89
2021/07/03 00:06:00;;;;;;;;;12.60;11.20;;;;;;;;5084643;28;8886;-88
2021/07/03 00:08:28;;;;;;;;;11.40;10.00;;;;;;;;5088724;28;8862;-92
2021/07/03 00:10:56;;;;;;;;;10.20;9.80;;;;;;;;5083305;28;8862;-88
2021/07/03 00:13:23;;;;;;;;;11.40;11.40;;;;;;;;5088405;28;8873;-89
2021/07/03 00:15:51;;;;;;;;;14.00;12.40;;;;;;;;5086743;28;8889;-87
2021/07/03 00:18:19;;;;;;;;;15.00;13.80;;;;;;;;5087078;28;8866;-88
2021/07/03 00:20:46;;;;;;;;;16.00;14.60;;;;;;;;5068783;28;8961;-90
2021/07/03 00:23:15;;;;;;;;;11.40;11.40;;;;;;;;5088140;28;8933;-92
2021/07/03 00:25:43;;;;;;;;;16.00;16.00;;;;;;;;5052248;28;8858;-90
2021/07/03 00:28:11;;;;;;;;;15.20;15.20;;;;;;;;5087585;28;8862;-87
2021/07/03 00:30:38;;;;;;;;;12.80;12.80;;;;;;;;5085083;28;8782;-87
2021/07/03 00:33:06;;;;;;;;;11.60;11.60;;;;;;;;5069194;28;8862;-92
2021/07/03 00:35:33;;;;;;;;;15.40;14.40;;;;;;;;5084123;28;8854;-92
2021/07/03 00:38:00;;;;;;;;;12.00;12.00;;;;;;;;5087297;28;8892;-92
2021/07/03 00:40:29;;;;;;;;;14.40;14.40;;;;;;;;5085625;28;8874;-93
2021/07/03 00:42:57;;;;;;;;;15.40;14.20;;;;;;;;5086681;28;8834;-87
2021/07/03 00:45:25;;;;;;;;;12.20;12.20;;;;;;;;5068477;28;8964;-92
2021/07/03 00:47:53;;;;;;;;;11.20;11.20;;;;;;;;5085732;28;8858;-92
2021/07/03 01:04:16;;;;;;;;;11.00;11.00;;;;;;;;5030874;28;8858;-91
2021/07/03 01:06:43;;;;;;;;;8.60;8.60;;;;;;;;5087213;28;9013;-92
2021/07/03 01:09:10;;;;;;;;;12.20;11.60;;;;;;;;5086132;28;8886;-93
2021/07/03 01:14:43;;;;;;;;;12.80;12.40;;;;;;;;4988849;28;9632;-92
2021/07/03 01:17:13;;;;;;;;;12.20;11.80;;;;;;;;5073825;28;8979;-92
2021/07/03 01:19:43;;;;;;;;;11.00;10.20;;;;;;;;5084139;28;8896;-92
2021/07/03 01:22:14;;;;;;;;;10.60;10.60;;;;;;;;5085492;28;8981;-93
2021/07/03 01:24:42;;;;;;;;;10.00;10.00;;;;;;;;5086099;28;9596;-92
2021/07/03 01:27:12;;;;;;;;;9.40;9.20;;;;;;;;5067995;28;8841;-90
2021/07/03 01:29:40;;;;;;;;;10.80;10.80;;;;;;;;5087011;28;8916;-92
2021/07/03 01:32:08;;;;;;;;;11.40;10.00;;;;;;;;5085421;28;8814;-92
2021/07/03 01:34:35;;;;;;;;;11.40;11.40;;;;;;;;5082622;28;8890;-91
2021/07/03 01:37:03;;;;;;;;;12.80;12.80;;;;;;;;5083114;28;8867;-91
2021/07/03 01:39:31;;;;;;;;;10.20;10.20;;;;;;;;5085990;28;9642;-95
2021/07/03 01:41:59;;;;;;;;;12.20;12.00;;;;;;;;5068185;28;8896;-91
2021/07/03 01:44:27;;;;;;;;;12.00;10.80;;;;;;;;5079745;28;8906;-91
2021/07/03 01:46:56;;;;;;;;;14.60;13.00;;;;;;;;5079782;28;8919;-88
2021/07/03 01:49:24;;;;;;;;;5.00;5.00;;;;;;;;5080684;28;8879;-87
2021/07/03 02:02:47;;;;;;;;;11.60;11.60;;;;;;;;5084465;27;9589;-89
2021/07/03 02:05:18;;;;;;;;;15.40;13.80;;;;;;;;5064170;28;9491;-90
2021/07/03 02:07:45;;;;;;;;;14.00;11.80;;;;;;;;5064671;28;8879;-90
2021/07/03 02:10:12;;;;;;;;;8.40;8.40;;;;;;;;5064746;28;8986;-94
2021/07/03 02:12:41;;;;;;;;;10.00;10.00;;;;;;;;5067058;28;9717;-94
2021/07/03 02:15:09;;;;;;;;;12.40;12.20;;;;;;;;5063915;28;8861;-86
2021/07/03 02:27:49;;;;;;;;;10.00;10.00;;;;;;;;5063960;28;8851;-87
2021/07/03 02:30:18;;;;;;;;;9.00;9.00;;;;;;;;5065072;28;8892;-89
2021/07/03 02:32:47;;;;;;;;;12.00;12.00;;;;;;;;5065035;28;8844;-90
2021/07/03 02:35:15;;;;;;;;;9.40;9.40;;;;;;;;5064995;28;8998;-92
2021/07/03 02:37:43;;;;;;;;;13.20;13.00;;;;;;;;5061197;28;8852;-90
2021/07/03 02:40:13;;;;;;;;;11.80;11.80;;;;;;;;5061206;28;8876;-90
2021/07/03 02:42:41;;;;;;;;;10.40;10.40;;;;;;;;5056081;28;8856;-92
2021/07/03 02:45:12;;;;;;;;;9.00;9.00;;;;;;;;5064257;28;8972;-95
2021/07/03 02:47:40;;;;;;;;;11.00;11.00;;;;;;;;5063396;28;8887;-92
2021/07/03 02:50:10;;;;;;;;;10.80;10.80;;;;;;;;5065644;28;9015;-94
2021/07/03 02:52:37;;;;;;;;;11.60;10.80;;;;;;;;5075566;28;8852;-94
2021/07/03 02:55:06;;;;;;;;;10.80;10.80;;;;;;;;5064377;28;8990;-94
2021/07/03 02:57:34;;;;;;;;;8.00;8.00;;;;;;;;5066795;28;8872;-95
2021/07/03 03:00:01;;;;;;;;;9.40;9.40;;;;;;;;5061439;28;8854;-90
2021/07/03 03:02:30;;;;;;;;;10.80;10.80;;;;;;;;5062191;28;9685;-90
2021/07/03 03:04:57;;;;;;;;;13.00;13.00;;;;;;;;5083928;28;8898;-91
2021/07/03 03:07:25;;;;;;;;;14.20;13.00;;;;;;;;5063301;28;8997;-92
2021/07/03 03:09:52;;;;;;;;;8.80;8.80;;;;;;;;5084627;28;8854;-93
2021/07/03 03:12:19;;;;;;;;;12.40;12.40;;;;;;;;5084093;28;8894;-92
2021/07/03 03:14:47;;;;;;;;;12.40;10.60;;;;;;;;5084912;28;8889;-92
2021/07/03 03:17:14;;;;;;;;;9.40;9.40;;;;;;;;5084917;28;8854;-92
2021/07/03 03:19:43;;;;;;;;;9.60;9.60;;;;;;;;5084006;28;8874;-93
2021/07/03 03:22:10;;;;;;;;;11.00;11.00;;;;;;;;5084149;28;8857;-93
2021/07/03 03:24:37;;;;;;;;;8.60;6.60;;;;;;;;5083887;28;9001;-92
2021/07/03 03:27:05;;;;;;;;;12.20;11.00;;;;;;;;5084750;28;8844;-93
2021/07/03 03:29:32;;;;;;;;;11.80;11.80;;;;;;;;5082232;28;8938;-94
2021/07/03 03:31:59;;;;;;;;;12.40;12.40;;;;;;;;5084211;28;8977;-91
2021/07/03 03:34:27;;;;;;;;;9.40;9.40;;;;;;;;5085247;28;8858;-89
2021/07/03 03:36:55;;;;;;;;;10.00;9.80;;;;;;;;5082990;28;9013;-91
2021/07/03 03:39:23;;;;;;;;;12.20;11.00;;;;;;;;5084362;28;8980;-93
2021/07/03 03:41:50;;;;;;;;;10.00;10.00;;;;;;;;5083193;28;8969;-91
2021/07/03 03:44:19;;;;;;;;;8.20;8.20;;;;;;;;5083645;28;9613;-91
2021/07/03 03:46:51;;;;;;;;;9.00;9.00;;;;;;;;5083385;28;8908;-92
2021/07/03 03:49:19;;;;;;;;;12.20;11.80;;;;;;;;5084888;28;8858;-91
2021/07/03 03:51:47;;;;;;;;;9.40;9.40;;;;;;;;5084142;28;8838;-92
2021/07/03 03:54:16;;;;;;;;;8.80;8.80;;;;;;;;5084604;28;8891;-91
2021/07/03 03:56:44;;;;;;;;;11.60;11.60;;;;;;;;5083900;28;8823;-91
2021/07/03 03:59:12;;;;;;;;;12.80;11.00;;;;;;;;5082316;28;8862;-91
2021/07/03 04:01:39;;;;;;;;;12.00;12.00;;;;;;;;5065829;28;8802;-92
2021/07/03 04:04:07;;;;;;;;;15.40;12.60;;;;;;;;5083662;28;8905;-93
2021/07/03 04:06:37;;;;;;;;;10.60;10.60;;;;;;;;5084426;28;8880;-91
2021/07/03 04:09:04;;;;;;;;;11.60;11.60;;;;;;;;5079805;28;8848;-92
2021/07/03 04:11:33;;;;;;;;;12.00;12.00;;;;;;;;5065507;28;8881;-93
2021/07/03 04:14:00;;;;;;;;;9.60;9.60;;;;;;;;5080782;28;8871;-92
2021/07/03 04:26:17;;;;;;;;;12.20;12.20;;;;;;;;4980068;28;8833;-92
2021/07/03 04:28:52;;;;;;;;;9.40;9.40;;;;;;;;4994227;28;8873;-93
2021/07/03 04:31:20;;;;;;;;;11.80;11.60;;;;;;;;5068564;28;8783;-94
2021/07/03 04:33:48;;;;;;;;;10.40;10.40;;;;;;;;5088492;28;8874;-94
2021/07/03 04:36:15;;;;;;;;;11.60;11.00;;;;;;;;5089414;28;8830;-91
2021/07/03 04:38:43;;;;;;;;;12.40;12.40;;;;;;;;5105007;27;8881;-93
2021/07/03 04:41:10;;;;;;;;;13.40;10.60;;;;;;;;5088576;28;9585;-91
2021/07/03 04:43:37;;;;;;;;;11.20;11.20;;;;;;;;5086461;28;8871;-92
2021/07/03 04:46:06;;;;;;;;;13.60;13.60;;;;;;;;5087078;28;8854;-92
2021/07/03 04:48:33;;;;;;;;;11.80;11.80;;;;;;;;5085357;28;8952;-92
2021/07/03 04:51:01;;;;;;;;;10.00;10.00;;;;;;;;5083577;28;8905;-93
2021/07/03 04:53:28;;;;;;;;;11.80;11.80;;;;;;;;5091705;28;9004;-92
2021/07/03 04:55:56;;;;;;;;;9.00;9.00;;;;;;;;5072023;28;8859;-92
2021/07/03 04:58:23;;;;;;;;;15.00;13.80;;;;;;;;5062371;28;8870;-93
2021/07/03 05:00:50;;;;;;;;;11.60;11.60;;;;;;;;5084035;28;8815;-91
2021/07/03 05:03:20;;;;;;;;;12.00;10.20;;;;;;;;5087452;28;8851;-91
2021/07/03 05:05:47;;;;;;;;;13.80;12.00;;;;;;;;5085362;28;8988;-91
2021/07/03 05:08:14;;;;;;;;;13.20;13.20;;;;;;;;5087226;28;8882;-92
2021/07/03 05:10:42;;;;;;;;;11.00;11.00;;;;;;;;5082722;28;8867;-92
2021/07/03 05:13:09;;;;;;;;;9.00;8.80;;;;;;;;5082884;28;9494;-91
2021/07/03 05:15:36;;;;;;;;;12.20;10.20;;;;;;;;5087039;28;8846;-93
2021/07/03 05:18:04;;;;;;;;;13.40;13.40;;;;;;;;5085901;28;8970;-91
2021/07/03 05:20:33;;;;;;;;;10.00;8.60;;;;;;;;5087215;28;8985;-92
2021/07/03 05:23:01;;;;;;;;;9.00;9.00;;;;;;;;5086210;28;8943;-89
2021/07/03 05:25:28;;;;;;;;;15.20;14.00;;;;;;;;5087049;28;8870;-90
2021/07/03 05:27:55;;;;;;;;;11.20;11.00;;;;;;;;5086612;28;8874;-92
2021/07/03 05:30:23;;;;;;;;;12.60;12.60;;;;;;;;5084123;28;8800;-94
2021/07/03 05:32:50;;;;;;;;;14.60;14.60;;;;;;;;5069362;28;8858;-91
2021/07/03 05:35:17;;;;;;;;;12.20;12.20;;;;;;;;5067883;28;8993;-93
2021/07/03 05:37:46;;;;;;;;;15.60;12.20;;;;;;;;5086503;28;8872;-92
2021/07/03 05:40:16;;;;;;;;;10.00;10.00;;;;;;;;5067819;28;8873;-92
2021/07/03 05:42:44;;;;;;;;;11.40;11.40;;;;;;;;5085633;28;8846;-89
2021/07/03 05:45:14;;;;;;;;;13.00;12.20;;;;;;;;5084122;28;8886;-92
2021/07/03 05:47:41;;;;;;;;;12.80;11.40;;;;;;;;5086345;28;8893;-92
2021/07/03 05:53:06;;;;;;;;;14.00;12.40;;;;;;;;5063383;28;8816;-95
2021/07/03 05:55:33;;;;;;;;;11.40;11.40;;;;;;;;5107270;27;8875;-88
2021/07/03 05:58:01;;;;;;;;;13.20;11.60;;;;;;;;5067953;28;8870;-88
2021/07/03 06:00:28;;;;;;;;;10.60;10.60;;;;;;;;5085153;28;8809;-92
2021/07/03 06:03:17;;;;;;;;;9.20;9.20;;;;;;;;5073975;28;8880;-96
2021/07/03 06:05:45;;;;;;;;;9.00;9.00;;;;;;;;5078673;28;8966;-90
2021/07/03 06:08:14;;;;;;;;;10.80;10.80;;;;;;;;5087208;28;8985;-95
2021/07/03 06:10:41;;;;;;;;;10.40;10.40;;;;;;;;5087376;28;8959;-83
2021/07/03 06:13:09;;;;;;;;;13.60;13.60;;;;;;;;5089926;28;8988;-78
2021/07/03 06:15:36;;;;;;;;;11.00;11.00;;;;;;;;5088249;28;8858;-78
2021/07/03 06:18:03;;;;;;;;;12.20;11.00;;;;;;;;5089413;28;8866;-79
2021/07/03 06:20:31;;;;;;;;;11.00;11.00;;;;;;;;5065776;28;8830;-80
2021/07/03 06:22:58;;;;;;;;;13.00;13.00;;;;;;;;5083952;28;8999;-79
2021/07/03 06:25:27;;;;;;;;;11.80;11.80;;;;;;;;5085386;28;8849;-80
2021/07/03 06:27:54;;;;;;;;;12.80;11.40;;;;;;;;5083523;28;8939;-82
2021/07/03 06:30:22;;;;;;;;;12.80;11.00;;;;;;;;5082854;28;8896;-81
2021/07/03 06:32:51;;;;;;;;;14.00;11.40;;;;;;;;5082311;28;8991;-81
2021/07/03 06:35:19;;;;;;;;;12.40;10.40;;;;;;;;5084540;28;8863;-81
2021/07/03 06:37:46;;;;;;;;;13.00;13.00;;;;;;;;5080215;28;8846;-79
2021/07/03 06:40:14;;;;;;;;;10.20;10.20;;;;;;;;5065067;28;8869;-82
2021/07/03 06:42:43;;;;;;;;;11.00;11.00;;;;;;;;5082943;28;8848;-83
2021/07/03 06:45:10;;;;;;;;;14.00;14.00;;;;;;;;5083028;28;8886;-81
2021/07/03 06:47:38;;;;;;;;;12.20;9.80;;;;;;;;5085267;28;8876;-83
2021/07/03 06:50:08;;;;;;;;;16.80;16.80;;;;;;;;5064112;28;8847;-83
2021/07/03 06:52:35;;;;;;;;;15.80;15.40;;;;;;;;5082454;28;8854;-82
2021/07/03 06:55:03;;;;;;;;;12.20;12.20;;;;;;;;5081487;28;8866;-82
2021/07/03 06:57:31;;;;;;;;;12.20;12.20;;;;;;;;5083117;28;8852;-84
2021/07/03 07:00:00;;;;;;;;;12.00;12.00;;;;;;;;5081587;28;8947;-83
2021/07/03 07:02:27;;;;;;;;;14.60;13.00;;;;;;;;5058993;28;8804;-82
2021/07/03 07:04:54;;;;;;;;;17.00;15.20;;;;;;;;5071106;28;8844;-81
2021/07/03 07:07:22;;;;;;;;;12.60;12.60;;;;;;;;5066054;28;8884;-81
2021/07/03 07:09:49;;;;;;;;;16.40;16.40;;;;;;;;5066618;28;8895;-79
2021/07/03 07:12:17;;;;;;;;;17.60;13.80;;;;;;;;5061457;28;8864;-81
2021/07/03 07:14:44;;;;;;;;;14.20;14.20;;;;;;;;5062462;28;8859;-77
2021/07/03 07:17:13;;;;;;;;;15.60;14.40;;;;;;;;5066680;28;8854;-79
2021/07/03 07:19:40;;;;;;;;;13.00;13.00;;;;;;;;5066187;28;8983;-77
2021/07/03 07:22:08;;;;;;;;;13.40;13.40;;;;;;;;5069832;28;8823;-78
2021/07/03 07:24:35;;;;;;;;;17.00;15.40;;;;;;;;5050178;28;8858;-79
2021/07/03 07:27:02;;;;;;;;;16.00;14.40;;;;;;;;5078110;28;8842;-80
2021/07/03 07:29:30;;;;;;;;;14.60;14.60;;;;;;;;5069058;28;8880;-83
2021/07/03 07:31:57;;;;;;;;;13.00;13.00;;;;;;;;5057604;28;8801;-81
2021/07/03 07:34:25;;;;;;;;;17.00;16.00;;;;;;;;5059956;28;8864;-82
2021/07/03 07:36:53;;;;;;;;;17.40;15.60;;;;;;;;5059430;28;8860;-82
2021/07/03 07:39:20;;;;;;;;;18.00;16.00;;;;;;;;5063054;28;8884;-81
2021/07/03 07:41:48;;;;;;;;;15.40;15.40;;;;;;;;5062387;28;9011;-83
2021/07/03 07:44:15;;;;;;;;;12.40;12.40;;;;;;;;5064065;28;8887;-82
2021/07/03 07:46:42;;;;;;;;;14.00;14.00;;;;;;;;5060358;28;8876;-80
2021/07/03 07:49:10;;;;;;;;;14.40;13.60;;;;;;;;5048635;28;8914;-83
2021/07/03 07:51:38;;;;;;;;;14.80;14.80;;;;;;;;5067611;28;8917;-82
2021/07/03 07:54:05;;;;;;;;;15.20;15.20;;;;;;;;5067312;28;8925;-82
2021/07/03 07:56:33;;;;;;;;;15.00;13.00;;;;;;;;5067983;28;8844;-81
2021/07/03 07:59:00;;;;;;;;;14.00;12.80;;;;;;;;5066534;28;8971;-83
2021/07/03 08:01:27;;;;;;;;;11.60;11.60;;;;;;;;5066527;28;8816;-82
2021/07/03 08:03:55;;;;;;;;;14.20;14.20;;;;;;;;5070808;28;9616;-80
2021/07/03 08:06:22;;;;;;;;;15.00;13.20;;;;;;;;5087821;28;8856;-82
2021/07/03 08:08:50;;;;;;;;;15.40;14.40;;;;;;;;5086812;28;8881;-81
2021/07/03 08:11:17;;;;;;;;;14.40;14.40;;;;;;;;5087278;28;8880;-82
2021/07/03 08:13:45;;;;;;;;;18.60;17.20;;;;;;;;5087378;28;8992;-82
2021/07/03 08:16:12;;;;;;;;;15.80;13.00;;;;;;;;5094552;28;8883;-80
2021/07/03 08:18:39;;;;;;;;;16.20;16.20;;;;;;;;5088302;28;8893;-84
2021/07/03 08:21:06;;;;;;;;;12.00;12.00;;;;;;;;5086344;28;9713;-84
2021/07/03 08:23:34;;;;;;;;;13.20;13.20;;;;;;;;5087716;28;8991;-83
2021/07/03 08:26:02;;;;;;;;;12.40;11.60;;;;;;;;5085796;28;8976;-83
2021/07/03 08:28:29;;;;;;;;;12.20;12.20;;;;;;;;5087017;28;8862;-82
2021/07/03 08:30:57;;;;;;;;;9.60;9.60;;;;;;;;5086214;28;8854;-84
2021/07/03 08:33:24;;;;;;;;;11.20;11.20;;;;;;;;5086414;28;8894;-81
2021/07/03 08:35:51;;;;;;;;;12.00;11.20;;;;;;;;5086589;28;8834;-81
2021/07/03 08:38:18;;;;;;;;;10.80;10.80;;;;;;;;5086072;28;8846;-81
2021/07/03 08:40:46;;;;;;;;;13.60;13.60;;;;;;;;5086641;28;8863;-84
2021/07/03 08:43:14;;;;;;;;;13.20;13.20;;;;;;;;5072485;28;8908;-84
2021/07/03 08:45:42;;;;;;;;;11.60;11.60;;;;;;;;5068761;28;8866;-82
2021/07/03 08:48:09;;;;;;;;;12.00;12.00;;;;;;;;5087211;28;8882;-84
2021/07/03 08:50:36;;;;;;;;;12.20;12.20;;;;;;;;5086991;28;8862;-83
2021/07/03 08:53:07;;;;;;;;;13.80;13.80;;;;;;;;5068724;28;8855;-81
2021/07/03 08:55:35;;;;;;;;;8.00;8.00;;;;;;;;5085778;28;8862;-81
2021/07/03 08:58:05;;;;;;;;;15.80;15.00;;;;;;;;5086833;28;8872;-83
2021/07/03 09:00:35;;;;;;;;;11.60;10.20;;;;;;;;5088562;28;8902;-84
2021/07/03 09:03:11;;;;;;;;;11.00;11.00;;;;;;;;5093890;28;8874;-83
2021/07/03 09:05:38;;;;;;;;;8.40;8.40;;;;;;;;5079513;28;8968;-83
2021/07/03 09:08:08;;;;;;;;;13.40;13.40;;;;;;;;5088949;28;8916;-85
2021/07/03 09:10:36;;;;;;;;;14.80;14.80;;;;;;;;5086944;28;8853;-82
2021/07/03 09:13:05;;;;;;;;;13.00;13.00;;;;;;;;5085535;28;8878;-85
2021/07/03 09:15:34;;;;;;;;;12.40;12.00;;;;;;;;5091266;28;8998;-83
2021/07/03 09:18:03;;;;;;;;;11.60;11.60;;;;;;;;5089838;28;8886;-84
2021/07/03 09:20:33;;;;;;;;;11.80;11.80;;;;;;;;5084996;28;8978;-82
2021/07/03 09:23:03;;;;;;;;;9.00;9.00;;;;;;;;5098180;28;8906;-84
2021/07/03 09:25:30;;;;;;;;;10.80;10.80;;;;;;;;5084926;28;8850;-81
2021/07/03 09:28:04;;;;;;;;;9.00;9.00;;;;;;;;5086201;28;8969;-83
2021/07/03 09:30:33;;;;;;;;;10.40;10.40;;;;;;;;5084057;28;8920;-81
2021/07/03 09:33:00;;;;;;;;;11.80;11.80;;;;;;;;5086177;28;8850;-82
2021/07/03 09:35:27;;;;;;;;;12.00;10.60;;;;;;;;5084334;28;8915;-83
2021/07/03 09:38:02;;;;;;;;;9.60;9.60;;;;;;;;5092655;28;8870;-83
2021/07/03 09:40:30;;;;;;;;;14.00;12.80;;;;;;;;5087822;28;8918;-82
2021/07/03 09:43:05;;;;;;;;;8.40;8.40;;;;;;;;5095524;28;9600;-87
2021/07/03 09:45:34;;;;;;;;;12.00;10.60;;;;;;;;5083785;28;8857;-90
2021/07/03 09:48:10;;;;;;;;;12.40;10.80;;;;;;;;5082689;28;9631;-89
2021/07/03 09:50:39;;;;;;;;;12.40;9.20;;;;;;;;5084178;28;8936;-78
2021/07/03 09:53:07;;;;;;;;;14.40;14.40;;;;;;;;5080599;28;8842;-83
2021/07/03 09:55:36;;;;;;;;;11.60;11.60;;;;;;;;5085311;28;8874;-84
2021/07/03 09:58:03;;;;;;;;;9.40;9.40;;;;;;;;5078691;28;8922;-81
2021/07/03 10:00:31;;;;;;;;;12.40;11.80;;;;;;;;5082974;28;8774;-81
2021/07/03 10:03:00;;;;;;;;;11.60;11.60;;;;;;;;5085957;28;8842;-85
2021/07/03 10:05:28;;;;;;;;;10.00;10.00;;;;;;;;5082232;28;8890;-90
2021/07/03 10:08:02;;;;;;;;;10.40;9.00;;;;;;;;5067712;28;8870;-87
2021/07/03 10:10:30;;;;;;;;;11.80;11.80;;;;;;;;5085294;28;8884;-89
2021/07/03 10:13:01;;;;;;;;;9.80;9.80;;;;;;;;5086015;28;8888;-90
2021/07/03 10:15:29;;;;;;;;;12.80;11.60;;;;;;;;5070301;28;8867;-91
2021/07/03 10:18:10;;;;;;;;;10.20;10.20;;;;;;;;5085799;28;8904;-90
2021/07/03 10:20:38;;;;;;;;;12.40;11.40;;;;;;;;5081315;28;8877;-85
2021/07/03 10:23:05;;;;;;;;;10.60;10.60;;;;;;;;5066743;28;9714;-89
2021/07/03 10:25:35;;;;;;;;;9.80;9.80;;;;;;;;5087780;28;8862;-93
2021/07/03 10:28:06;;;;;;;;;11.80;11.80;;;;;;;;5083617;28;8870;-94
2021/07/03 10:30:36;;;;;;;;;11.60;11.60;;;;;;;;5080354;28;8827;-89
2021/07/03 10:33:05;;;;;;;;;12.60;10.80;;;;;;;;5066181;28;8850;-94
2021/07/03 10:35:49;;;;;;;;;11.40;11.20;;;;;;;;5086131;28;8858;-86
2021/07/03 10:38:22;;;;;;;;;11.00;11.00;;;;;;;;5081506;28;9729;-90
2021/07/03 10:40:50;;;;;;;;;13.20;11.60;;;;;;;;5089874;28;9349;-90
2021/07/03 10:43:18;;;;;;;;;11.60;10.00;;;;;;;;5085904;28;8850;-88
2021/07/03 10:45:47;;;;;;;;;14.00;12.60;;;;;;;;5080512;28;8841;-83
2021/07/03 10:48:16;;;;;;;;;13.20;11.40;;;;;;;;5081430;28;8849;-88
2021/07/03 10:50:44;;;;;;;;;13.40;12.00;;;;;;;;5083499;28;8857;-87
2021/07/03 10:53:22;;;;;;;;;11.00;11.00;;;;;;;;5083321;28;8862;-93
2021/07/03 10:55:50;;;;;;;;;13.20;13.20;;;;;;;;5085207;28;8870;-87
2021/07/03 10:58:18;;;;;;;;;14.20;12.00;;;;;;;;5082162;28;8915;-86
2021/07/03 11:00:49;;;;;;;;;15.20;13.00;;;;;;;;5083686;28;9614;-87
2021/07/03 11:03:19;;;;;;;;;11.00;11.00;;;;;;;;5079834;28;9019;-92
2021/07/03 11:05:47;;;;;;;;;15.00;13.20;;;;;;;;5064252;28;8884;-94
2021/07/03 11:08:16;;;;;;;;;14.20;13.00;;;;;;;;5065271;28;8983;-91
2021/07/03 11:10:45;;;;;;;;;13.60;13.60;;;;;;;;5057361;28;8849;-84
2021/07/03 11:13:22;;;;;;;;;10.00;10.00;;;;;;;;5063787;28;8856;-82
2021/07/03 11:15:50;;;;;;;;;14.40;12.40;;;;;;;;5052080;28;8856;-86
2021/07/03 11:18:17;;;;;;;;;13.20;12.20;;;;;;;;5062941;28;8977;-87
2021/07/03 11:20:45;;;;;;;;;12.20;12.20;;;;;;;;5064101;28;8856;-91
2021/07/03 11:23:13;;;;;;;;;13.20;13.20;;;;;;;;5064883;28;8891;-91
2021/07/03 11:25:42;;;;;;;;;11.80;11.80;;;;;;;;5063777;28;8943;-83
2021/07/03 11:28:12;;;;;;;;;11.80;11.80;;;;;;;;5061892;28;8876;-85
2021/07/03 11:30:42;;;;;;;;;13.00;13.00;;;;;;;;5062979;28;8784;-89
2021/07/03 11:33:10;;;;;;;;;12.00;12.00;;;;;;;;5060991;28;9038;-85
2021/07/03 11:35:42;;;;;;;;;12.60;12.60;;;;;;;;5060815;28;8994;-85
2021/07/03 11:38:09;;;;;;;;;15.00;15.00;;;;;;;;5063142;28;8875;-87
2021/07/03 11:40:36;;;;;;;;;17.00;15.40;;;;;;;;5063820;28;8834;-87
2021/07/03 11:43:05;;;;;;;;;16.00;13.40;;;;;;;;5062536;28;8939;-86
2021/07/03 11:45:36;;;;;;;;;13.00;13.00;;;;;;;;5061158;28;8954;-86
2021/07/03 11:48:06;;;;;;;;;11.20;9.80;;;;;;;;5063414;28;8850;-85
2021/07/03 11:50:36;;;;;;;;;14.40;13.40;;;;;;;;5028123;28;8894;-88
2021/07/03 11:53:05;;;;;;;;;12.40;12.40;;;;;;;;5063391;28;8869;-86
2021/07/03 11:55:34;;;;;;;;;12.60;12.00;;;;;;;;5045732;28;8836;-87
2021/07/03 11:58:02;;;;;;;;;14.40;13.40;;;;;;;;5039639;28;8892;-86
2021/07/03 12:00:31;;;;;;;;;10.20;10.20;;;;;;;;5045319;28;8780;-85
2021/07/03 12:03:01;;;;;;;;;11.80;11.00;;;;;;;;5043701;28;8868;-83
2021/07/03 12:05:30;;;;;;;;;8.00;8.00;;;;;;;;5063370;28;8991;-84
2021/07/03 12:08:03;;;;;;;;;12.60;12.60;;;;;;;;5059523;28;8868;-83
2021/07/03 12:10:39;;;;;;;;;12.20;10.40;;;;;;;;5062300;28;8880;-85
2021/07/03 12:13:08;;;;;;;;;10.60;10.60;;;;;;;;5061997;28;9006;-84
2021/07/03 12:15:36;;;;;;;;;10.00;10.00;;;;;;;;5060560;28;8991;-87
2021/07/03 12:18:05;;;;;;;;;9.80;9.80;;;;;;;;5063704;28;8918;-87
2021/07/03 12:20:34;;;;;;;;;10.00;10.00;;;;;;;;5058184;28;8910;-84
2021/07/03 12:23:04;;;;;;;;;7.20;7.20;;;;;;;;5056093;28;8982;-86
2021/07/03 12:25:32;;;;;;;;;10.80;9.40;;;;;;;;5057437;28;8872;-90
2021/07/03 12:28:02;;;;;;;;;10.40;10.40;;;;;;;;5057826;28;8860;-85
2021/07/03 12:30:31;;;;;;;;;12.40;11.00;;;;;;;;5060575;28;8816;-86
2021/07/03 12:33:04;;;;;;;;;11.40;10.00;;;;;;;;5059661;28;8884;-84
2021/07/03 12:35:37;;;;;;;;;12.20;12.20;;;;;;;;5061612;28;8964;-86
2021/07/03 12:38:05;;;;;;;;;10.40;8.80;;;;;;;;5062658;28;8880;-85
2021/07/03 12:40:34;;;;;;;;;8.00;8.00;;;;;;;;5066093;28;8866;-85
2021/07/03 12:43:02;;;;;;;;;9.40;9.00;;;;;;;;5059401;28;8883;-85
2021/07/03 12:45:30;;;;;;;;;8.80;8.40;;;;;;;;5061351;28;8868;-86
2021/07/03 12:48:18;;;;;;;;;9.80;9.80;;;;;;;;5043502;28;8872;-86
2021/07/03 12:50:46;;;;;;;;;11.00;9.80;;;;;;;;5066424;28;8929;-85
2021/07/03 12:53:15;;;;;;;;;8.00;8.00;;;;;;;;5065776;28;8906;-85
2021/07/03 12:55:44;;;;;;;;;12.40;10.20;;;;;;;;5061785;28;8976;-86
2021/07/03 12:58:23;;;;;;;;;9.00;9.00;;;;;;;;5044179;28;8886;-86
2021/07/03 13:00:52;;;;;;;;;11.20;9.40;;;;;;;;5061914;28;8777;-85
2021/07/03 13:03:22;;;;;;;;;13.00;11.20;;;;;;;;5060420;28;8896;-85
2021/07/03 13:05:57;;;;;;;;;7.00;7.00;;;;;;;;5083655;28;8899;-89
2021/07/03 13:08:25;;;;;;;;;12.20;12.20;;;;;;;;5082080;28;9062;-84
2021/07/03 13:10:52;;;;;;;;;11.80;8.80;;;;;;;;5084176;28;8865;-86
2021/07/03 13:13:20;;;;;;;;;11.80;11.20;;;;;;;;5082066;28;8864;-86
2021/07/03 13:15:48;;;;;;;;;8.80;7.80;;;;;;;;5083200;28;8883;-84
2021/07/03 13:18:17;;;;;;;;;10.80;9.00;;;;;;;;5084045;28;8870;-86
2021/07/03 13:20:46;;;;;;;;;10.00;8.20;;;;;;;;5083487;28;9000;-84
2021/07/03 13:23:14;;;;;;;;;7.20;7.20;;;;;;;;5082948;28;8858;-84
2021/07/03 13:25:41;;;;;;;;;6.20;6.20;;;;;;;;5082672;28;8885;-84
2021/07/03 13:28:11;;;;;;;;;5.00;5.00;;;;;;;;5084142;28;8858;-84
2021/07/03 13:30:39;;;;;;;;;9.00;9.00;;;;;;;;5081856;28;8883;-85
2021/07/03 13:33:06;;;;;;;;;8.20;7.00;;;;;;;;5082114;28;8854;-85
2021/07/03 13:35:33;;;;;;;;;9.40;9.40;;;;;;;;5082899;28;8842;-82
2021/07/03 13:38:02;;;;;;;;;8.00;8.00;;;;;;;;5085463;28;8942;-80
2021/07/03 13:40:30;;;;;;;;;9.20;9.00;;;;;;;;5083353;28;8861;-83
2021/07/03 13:42:57;;;;;;;;;9.20;7.60;;;;;;;;5081424;28;9646;-81
2021/07/03 13:45:25;;;;;;;;;8.00;7.40;;;;;;;;5080417;28;8862;-83
2021/07/03 13:47:52;;;;;;;;;11.20;8.00;;;;;;;;5080657;28;8899;-85
2021/07/03 13:50:19;;;;;;;;;5.20;5.20;;;;;;;;5084303;28;8858;-82
2021/07/03 13:52:47;;;;;;;;;6.40;6.40;;;;;;;;5086947;28;8855;-84
2021/07/03 13:55:15;;;;;;;;;6.00;6.00;;;;;;;;5083535;28;8900;-83
2021/07/03 13:57:43;;;;;;;;;7.20;7.20;;;;;;;;5081655;28;8842;-82
2021/07/03 14:00:11;;;;;;;;;7.00;7.00;;;;;;;;5081877;28;8872;-84
2021/07/03 14:02:39;;;;;;;;;12.00;10.00;;;;;;;;5082127;28;8966;-84
2021/07/03 14:05:08;;;;;;;;;10.80;10.80;;;;;;;;5084863;28;8851;-85
2021/07/03 14:07:35;;;;;;;;;8.00;8.00;;;;;;;;5078955;28;8899;-84
2021/07/03 14:10:04;;;;;;;;;8.00;8.00;;;;;;;;5081891;28;8870;-86
2021/07/03 14:12:33;;;;;;;;;9.80;8.40;;;;;;;;5082493;28;8950;-88
2021/07/03 14:15:00;;;;;;;;;6.60;6.60;;;;;;;;5083188;28;8978;-87
2021/07/03 14:17:30;;;;;;;;;5.40;5.40;;;;;;;;5081472;28;8896;-84
2021/07/03 14:19:57;;;;;;;;;5.20;5.20;;;;;;;;5083027;28;8961;-85
2021/07/03 14:22:25;;;;;;;;;6.40;6.40;;;;;;;;5080888;28;8881;-81
2021/07/03 14:24:52;;;;;;;;;6.00;6.00;;;;;;;;5086470;28;8881;-82
2021/07/03 14:27:20;;;;;;;;;8.00;8.00;;;;;;;;5081192;28;8983;-92
2021/07/03 14:29:49;;;;;;;;;4.80;4.80;;;;;;;;5083874;28;8899;-87
2021/07/03 14:32:16;;;;;;;;;5.60;5.60;;;;;;;;5081157;28;8822;-83
2021/07/03 14:34:44;;;;;;;;;6.40;6.40;;;;;;;;5081744;28;9013;-83
2021/07/03 14:37:11;;;;;;;;;5.00;5.00;;;;;;;;5083444;28;8850;-86
2021/07/03 14:39:39;;;;;;;;;6.60;6.60;;;;;;;;5080712;28;8873;-85
2021/07/03 14:42:07;;;;;;;;;4.80;4.80;;;;;;;;5080921;28;8854;-83
2021/07/03 14:44:34;;;;;;;;;6.60;4.00;;;;;;;;5081158;28;8884;-85
2021/07/03 14:47:05;;;;;;;;;6.20;4.40;;;;;;;;5083145;28;8850;-81
2021/07/03 14:49:32;;;;;;;;;4.00;4.00;;;;;;;;5080359;28;8889;-83
2021/07/03 14:51:59;;;;;;;;;4.60;4.60;;;;;;;;5076112;28;8866;-83
2021/07/03 14:54:27;;;;;;;;;6.00;4.60;;;;;;;;5081632;28;8870;-86
2021/07/03 14:56:55;;;;;;;;;5.00;5.00;;;;;;;;5079784;28;8854;-84
2021/07/03 14:59:22;;;;;;;;;4.20;4.20;;;;;;;;5081060;28;8858;-83
2021/07/03 15:01:50;;;;;;;;;3.00;3.00;;;;;;;;5079125;28;8935;-86
2021/07/03 15:04:19;;;;;;;;;4.80;4.80;;;;;;;;5073524;28;9014;-85
2021/07/03 15:06:46;;;;;;;;;5.40;5.40;;;;;;;;5060211;28;8914;-84
2021/07/03 15:09:13;;;;;;;;;4.00;4.00;;;;;;;;5059991;28;8897;-84
2021/07/03 15:11:41;;;;;;;;;5.20;5.00;;;;;;;;5061946;28;8855;-85
2021/07/03 15:14:08;;;;;;;;;3.80;3.80;;;;;;;;5060632;28;8941;-85
2021/07/03 15:16:35;;;;;;;;;5.20;5.20;;;;;;;;5049299;28;8868;-84
2021/07/03 15:19:03;;;;;;;;;5.00;5.00;;;;;;;;5063626;28;8929;-86
2021/07/03 15:21:32;;;;;;;;;6.20;6.20;;;;;;;;5063659;28;8896;-86
2021/07/03 15:24:00;;;;;;;;;5.40;5.40;;;;;;;;5063332;28;8890;-84
2021/07/03 15:26:27;;;;;;;;;3.00;3.00;;;;;;;;5061618;28;8883;-86
2021/07/03 15:28:55;;;;;;;;;5.00;5.00;;;;;;;;5063600;28;8844;-87
2021/07/03 15:31:23;;;;;;;;;6.00;4.60;;;;;;;;5074816;28;8834;-85
2021/07/03 15:33:50;;;;;;;;;4.00;4.00;;;;;;;;5061396;28;8890;-85
2021/07/03 15:36:17;;;;;;;;;5.40;5.00;;;;;;;;5059933;28;8867;-85